map of FDE home
FDE - Airport
Location
City:  Bringeland, Norway
Name:Førde
ICAO:ENBL
IATA:FDE

Details
Type:Airport (Aerodrome, Airfield)
Use:Public/Civil
Latitude:61°23'28"N (61.391111)
Longitude:5°45'25"E (5.756944)
Datum:WGS 1984
Elevation:1046 ft (319 m)
Variation:1.47°E (WMM2015v2 magnetic declination)
0.23° annual change
Runways:unknown number
Longest:3084 ft (940 m)

Time
Time Zone:UTC+1 (DST+2)
Local Time:

Weather
METAR:ENBL 041350Z 32004KT 9999 VCSH SCT040 BKN080 01/M04 Q1004

Related Locations
Nearby:
Farthest:NZTB: 11366 mi / 18292 km
Terra Nova Bay [Mario Zucchelli Station], AQ

Find:

   beyond  
but within

Other Information
Maps:
NOTAMs:
Links:
Sources:

  
  • flag of Norway
  

Sectional Chart

Flight Planning
at skyvector.com

Satellite Image

Google Maps Satellite view

 

Copyright © 2004-2019 Karl L. Swartz. All rights reserved.
The Great Circle Mapper name and logo are trademarks of the Great Circle Mapper.
All other trademarks mentioned herein belong to their respective owners.
Please see credits for attibutions and further copyright information.

  Follow gcmap on Facebook Follow gcmap on Twitter GCmap on LinkedIn

hCard Microformat

Geo Microformat